sensor_id;sensor_type;location;lat;lon;timestamp;temperature;humidity
6518;DHT22;3292;48.944;9.240;2022-08-02T00:01:51;19.80;99.90
6518;DHT22;3292;48.944;9.240;2022-08-02T00:04:18;19.80;99.90
6518;DHT22;3292;48.944;9.240;2022-08-02T00:06:46;19.80;99.90
6518;DHT22;3292;48.944;9.240;2022-08-02T00:09:13;19.80;99.90
6518;DHT22;3292;48.944;9.240;2022-08-02T00:11:41;19.80;99.90
6518;DHT22;3292;48.944;9.240;2022-08-02T00:14:08;19.80;99.90
6518;DHT22;3292;48.944;9.240;2022-08-02T00:16:35;19.80;99.90
6518;DHT22;3292;48.944;9.240;2022-08-02T00:19:02;19.70;99.90
6518;DHT22;3292;48.944;9.240;2022-08-02T00:21:29;19.70;99.90
6518;DHT22;3292;48.944;9.240;2022-08-02T00:23:57;19.80;99.90
6518;DHT22;3292;48.944;9.240;2022-08-02T00:26:24;19.70;99.90
6518;DHT22;3292;48.944;9.240;2022-08-02T00:28:50;19.80;99.90
6518;DHT22;3292;48.944;9.240;2022-08-02T00:31:17;19.80;99.90
6518;DHT22;3292;48.944;9.240;2022-08-02T00:33:44;19.80;99.90
6518;DHT22;3292;48.944;9.240;2022-08-02T00:36:11;19.80;99.90
6518;DHT22;3292;48.944;9.240;2022-08-02T00:38:38;19.70;99.90
6518;DHT22;3292;48.944;9.240;2022-08-02T00:41:11;19.70;99.90
6518;DHT22;3292;48.944;9.240;2022-08-02T00:43:39;19.60;99.90
6518;DHT22;3292;48.944;9.240;2022-08-02T00:46:06;19.50;99.90
6518;DHT22;3292;48.944;9.240;2022-08-02T00:48:32;19.50;99.90
6518;DHT22;3292;48.944;9.240;2022-08-02T00:50:59;19.40;99.90
6518;DHT22;3292;48.944;9.240;2022-08-02T00:53:26;19.40;99.90
6518;DHT22;3292;48.944;9.240;2022-08-02T00:55:53;19.40;99.90
6518;DHT22;3292;48.944;9.240;2022-08-02T00:58:21;19.30;99.90
6518;DHT22;3292;48.944;9.240;2022-08-02T01:00:48;19.30;99.90
6518;DHT22;3292;48.944;9.240;2022-08-02T01:03:15;19.30;99.90
6518;DHT22;3292;48.944;9.240;2022-08-02T01:05:42;19.30;99.90
6518;DHT22;3292;48.944;9.240;2022-08-02T01:08:09;19.30;99.90
6518;DHT22;3292;48.944;9.240;2022-08-02T01:10:36;19.20;99.90
6518;DHT22;3292;48.944;9.240;2022-08-02T01:13:03;19.20;99.90
6518;DHT22;3292;48.944;9.240;2022-08-02T01:15:33;19.20;99.90
6518;DHT22;3292;48.944;9.240;2022-08-02T01:18:04;19.20;99.90
6518;DHT22;3292;48.944;9.240;2022-08-02T01:20:55;19.20;99.90
6518;DHT22;3292;48.944;9.240;2022-08-02T01:23:38;19.20;99.90
6518;DHT22;3292;48.944;9.240;2022-08-02T01:26:38;19.20;99.90
6518;DHT22;3292;48.944;9.240;2022-08-02T01:29:12;19.20;99.90
6518;DHT22;3292;48.944;9.240;2022-08-02T01:31:45;19.20;99.90
6518;DHT22;3292;48.944;9.240;2022-08-02T01:34:18;19.20;99.90
6518;DHT22;3292;48.944;9.240;2022-08-02T01:36:51;19.20;99.90
6518;DHT22;3292;48.944;9.240;2022-08-02T01:39:24;19.20;99.90
6518;DHT22;3292;48.944;9.240;2022-08-02T01:41:53;19.10;99.90
6518;DHT22;3292;48.944;9.240;2022-08-02T01:44:24;19.20;99.90
6518;DHT22;3292;48.944;9.240;2022-08-02T01:46:52;19.10;99.90
6518;DHT22;3292;48.944;9.240;2022-08-02T01:49:22;19.10;99.90
6518;DHT22;3292;48.944;9.240;2022-08-02T01:51:51;19.10;99.90
6518;DHT22;3292;48.944;9.240;2022-08-02T01:54:37;19.00;99.90
6518;DHT22;3292;48.944;9.240;2022-08-02T01:57:05;19.00;99.90
6518;DHT22;3292;48.944;9.240;2022-08-02T01:59:36;19.00;99.90
6518;DHT22;3292;48.944;9.240;2022-08-02T02:02:07;19.00;99.90
6518;DHT22;3292;48.944;9.240;2022-08-02T02:04:34;19.00;99.90
6518;DHT22;3292;48.944;9.240;2022-08-02T02:07:03;18.90;99.90
6518;DHT22;3292;48.944;9.240;2022-08-02T02:09:34;18.90;99.90
6518;DHT22;3292;48.944;9.240;2022-08-02T02:12:03;18.80;99.90
6518;DHT22;3292;48.944;9.240;2022-08-02T02:14:32;18.70;99.90
6518;DHT22;3292;48.944;9.240;2022-08-02T02:17:01;18.70;99.90
6518;DHT22;3292;48.944;9.240;2022-08-02T02:19:29;18.70;99.90
6518;DHT22;3292;48.944;9.240;2022-08-02T02:21:58;18.70;99.90
6518;DHT22;3292;48.944;9.240;2022-08-02T02:24:26;18.70;99.90
6518;DHT22;3292;48.944;9.240;2022-08-02T02:26:53;18.80;99.90
6518;DHT22;3292;48.944;9.240;2022-08-02T02:29:23;18.80;99.90
6518;DHT22;3292;48.944;9.240;2022-08-02T02:31:52;18.70;99.90
6518;DHT22;3292;48.944;9.240;2022-08-02T02:34:26;18.70;99.90
6518;DHT22;3292;48.944;9.240;2022-08-02T02:36:57;18.70;99.90
6518;DHT22;3292;48.944;9.240;2022-08-02T02:39:26;18.70;99.90
6518;DHT22;3292;48.944;9.240;2022-08-02T02:41:55;18.70;99.90
6518;DHT22;3292;48.944;9.240;2022-08-02T02:44:24;18.70;99.90
6518;DHT22;3292;48.944;9.240;2022-08-02T02:46:53;18.70;99.90
6518;DHT22;3292;48.944;9.240;2022-08-02T02:49:22;18.70;99.90
6518;DHT22;3292;48.944;9.240;2022-08-02T02:51:50;18.70;99.90
6518;DHT22;3292;48.944;9.240;2022-08-02T02:54:18;18.70;99.90
6518;DHT22;3292;48.944;9.240;2022-08-02T02:56:46;18.70;99.90
6518;DHT22;3292;48.944;9.240;2022-08-02T02:59:15;18.70;99.90
6518;DHT22;3292;48.944;9.240;2022-08-02T03:01:43;18.60;99.90
6518;DHT22;3292;48.944;9.240;2022-08-02T03:04:11;18.40;99.90
6518;DHT22;3292;48.944;9.240;2022-08-02T03:06:41;18.40;99.90
6518;DHT22;3292;48.944;9.240;2022-08-02T03:09:09;18.30;99.90
6518;DHT22;3292;48.944;9.240;2022-08-02T03:11:37;18.30;99.90
6518;DHT22;3292;48.944;9.240;2022-08-02T03:14:08;18.30;99.90
6518;DHT22;3292;48.944;9.240;2022-08-02T03:16:41;18.30;99.90
6518;DHT22;3292;48.944;9.240;2022-08-02T03:19:09;18.30;99.90
6518;DHT22;3292;48.944;9.240;2022-08-02T03:21:36;18.30;99.90
6518;DHT22;3292;48.944;9.240;2022-08-02T03:24:05;18.30;99.90
6518;DHT22;3292;48.944;9.240;2022-08-02T03:26:32;18.30;99.90
6518;DHT22;3292;48.944;9.240;2022-08-02T03:28:58;18.30;99.90
6518;DHT22;3292;48.944;9.240;2022-08-02T03:31:25;18.30;99.90
6518;DHT22;3292;48.944;9.240;2022-08-02T03:33:53;18.30;99.90
6518;DHT22;3292;48.944;9.240;2022-08-02T03:36:22;18.30;99.90
6518;DHT22;3292;48.944;9.240;2022-08-02T03:38:50;18.30;99.90
6518;DHT22;3292;48.944;9.240;2022-08-02T03:41:20;18.20;99.90
6518;DHT22;3292;48.944;9.240;2022-08-02T03:43:48;18.20;99.90
6518;DHT22;3292;48.944;9.240;2022-08-02T03:46:18;18.20;99.90
6518;DHT22;3292;48.944;9.240;2022-08-02T03:48:45;18.20;99.90
6518;DHT22;3292;48.944;9.240;2022-08-02T03:51:13;18.20;99.90
6518;DHT22;3292;48.944;9.240;2022-08-02T03:53:41;18.20;99.90
6518;DHT22;3292;48.944;9.240;2022-08-02T03:56:08;18.20;99.90
6518;DHT22;3292;48.944;9.240;2022-08-02T03:58:37;18.20;99.90
6518;DHT22;3292;48.944;9.240;2022-08-02T04:01:04;18.20;99.90
6518;DHT22;3292;48.944;9.240;2022-08-02T04:03:30;18.20;99.90
6518;DHT22;3292;48.944;9.240;2022-08-02T04:05:57;18.20;99.90
6518;DHT22;3292;48.944;9.240;2022-08-02T04:08:24;18.10;99.90
6518;DHT22;3292;48.944;9.240;2022-08-02T04:10:51;18.10;99.90
6518;DHT22;3292;48.944;9.240;2022-08-02T04:13:37;18.10;99.90
6518;DHT22;3292;48.944;9.240;2022-08-02T04:16:08;18.10;99.90
6518;DHT22;3292;48.944;9.240;2022-08-02T04:18:40;18.10;99.90
6518;DHT22;3292;48.944;9.240;2022-08-02T04:21:12;18.10;99.90
6518;DHT22;3292;48.944;9.240;2022-08-02T04:23:41;18.10;99.90
6518;DHT22;3292;48.944;9.240;2022-08-02T04:26:10;18.10;99.90
6518;DHT22;3292;48.944;9.240;2022-08-02T04:28:39;18.20;99.90
6518;DHT22;3292;48.944;9.240;2022-08-02T04:31:07;18.20;99.90
6518;DHT22;3292;48.944;9.240;2022-08-02T04:33:34;18.20;99.90
6518;DHT22;3292;48.944;9.240;2022-08-02T04:36:02;18.30;99.90
6518;DHT22;3292;48.944;9.240;2022-08-02T04:38:30;18.40;99.90
6518;DHT22;3292;48.944;9.240;2022-08-02T04:40:58;18.40;99.90
6518;DHT22;3292;48.944;9.240;2022-08-02T04:43:24;18.40;99.90
6518;DHT22;3292;48.944;9.240;2022-08-02T04:45:54;18.40;99.90
6518;DHT22;3292;48.944;9.240;2022-08-02T04:48:21;18.50;99.90
6518;DHT22;3292;48.944;9.240;2022-08-02T04:50:49;18.50;99.90
6518;DHT22;3292;48.944;9.240;2022-08-02T04:53:16;18.50;99.90
6518;DHT22;3292;48.944;9.240;2022-08-02T04:55:43;18.50;99.90
6518;DHT22;3292;48.944;9.240;2022-08-02T04:58:10;18.40;99.90
6518;DHT22;3292;48.944;9.240;2022-08-02T05:00:36;18.40;99.90
6518;DHT22;3292;48.944;9.240;2022-08-02T05:03:05;18.30;99.90
6518;DHT22;3292;48.944;9.240;2022-08-02T05:05:32;18.40;99.90
6518;DHT22;3292;48.944;9.240;2022-08-02T05:07:59;18.50;99.90
6518;DHT22;3292;48.944;9.240;2022-08-02T05:10:25;18.50;99.90
6518;DHT22;3292;48.944;9.240;2022-08-02T05:12:52;18.60;99.90
6518;DHT22;3292;48.944;9.240;2022-08-02T05:15:19;18.60;99.90
6518;DHT22;3292;48.944;9.240;2022-08-02T05:17:47;18.80;99.90
6518;DHT22;3292;48.944;9.240;2022-08-02T05:20:17;18.90;99.90
6518;DHT22;3292;48.944;9.240;2022-08-02T05:22:45;18.90;99.90
6518;DHT22;3292;48.944;9.240;2022-08-02T05:25:12;19.00;99.90
6518;DHT22;3292;48.944;9.240;2022-08-02T05:27:39;19.00;99.90
6518;DHT22;3292;48.944;9.240;2022-08-02T05:30:07;19.00;99.90
6518;DHT22;3292;48.944;9.240;2022-08-02T05:32:34;19.10;99.90
6518;DHT22;3292;48.944;9.240;2022-08-02T05:35:02;19.10;99.90
6518;DHT22;3292;48.944;9.240;2022-08-02T05:37:30;19.20;99.90
6518;DHT22;3292;48.944;9.240;2022-08-02T05:39:57;19.30;99.90
6518;DHT22;3292;48.944;9.240;2022-08-02T05:42:24;19.30;99.90
6518;DHT22;3292;48.944;9.240;2022-08-02T05:44:51;19.30;99.90
6518;DHT22;3292;48.944;9.240;2022-08-02T05:47:17;19.40;99.90
6518;DHT22;3292;48.944;9.240;2022-08-02T05:49:44;19.50;99.90
6518;DHT22;3292;48.944;9.240;2022-08-02T05:52:15;19.80;99.90
6518;DHT22;3292;48.944;9.240;2022-08-02T05:54:48;20.30;99.90
6518;DHT22;3292;48.944;9.240;2022-08-02T05:57:25;20.80;99.90
6518;DHT22;3292;48.944;9.240;2022-08-02T06:00:00;21.10;99.90
6518;DHT22;3292;48.944;9.240;2022-08-02T06:02:32;21.10;99.90
6518;DHT22;3292;48.944;9.240;2022-08-02T06:05:04;21.80;99.90
6518;DHT22;3292;48.944;9.240;2022-08-02T06:07:36;22.60;99.90
6518;DHT22;3292;48.944;9.240;2022-08-02T06:10:09;23.70;99.90
6518;DHT22;3292;48.944;9.240;2022-08-02T06:12:43;24.70;99.90
6518;DHT22;3292;48.944;9.240;2022-08-02T06:15:13;25.30;99.90
6518;DHT22;3292;48.944;9.240;2022-08-02T06:17:40;26.20;99.90
6518;DHT22;3292;48.944;9.240;2022-08-02T06:20:10;26.50;99.90
6518;DHT22;3292;48.944;9.240;2022-08-02T06:22:39;26.30;99.90
6518;DHT22;3292;48.944;9.240;2022-08-02T06:25:09;26.30;99.90
6518;DHT22;3292;48.944;9.240;2022-08-02T06:27:37;26.60;99.90
6518;DHT22;3292;48.944;9.240;2022-08-02T06:30:06;27.00;99.90
6518;DHT22;3292;48.944;9.240;2022-08-02T06:32:33;27.10;99.90
6518;DHT22;3292;48.944;9.240;2022-08-02T06:35:00;27.40;99.90
6518;DHT22;3292;48.944;9.240;2022-08-02T06:37:35;27.50;99.90
6518;DHT22;3292;48.944;9.240;2022-08-02T06:40:10;27.20;99.90
6518;DHT22;3292;48.944;9.240;2022-08-02T06:42:44;27.30;99.90
6518;DHT22;3292;48.944;9.240;2022-08-02T06:45:14;27.50;99.90
6518;DHT22;3292;48.944;9.240;2022-08-02T06:47:41;27.50;99.90
6518;DHT22;3292;48.944;9.240;2022-08-02T06:50:09;26.90;99.90
6518;DHT22;3292;48.944;9.240;2022-08-02T06:52:36;26.90;99.90
6518;DHT22;3292;48.944;9.240;2022-08-02T06:55:04;26.90;99.90
6518;DHT22;3292;48.944;9.240;2022-08-02T06:57:33;27.10;99.90
6518;DHT22;3292;48.944;9.240;2022-08-02T07:00:00;27.20;99.90
6518;DHT22;3292;48.944;9.240;2022-08-02T07:02:29;27.30;99.90
6518;DHT22;3292;48.944;9.240;2022-08-02T07:04:56;27.50;99.90
6518;DHT22;3292;48.944;9.240;2022-08-02T07:07:23;27.70;99.90
6518;DHT22;3292;48.944;9.240;2022-08-02T07:09:50;28.20;99.90
6518;DHT22;3292;48.944;9.240;2022-08-02T07:12:17;27.80;99.90
6518;DHT22;3292;48.944;9.240;2022-08-02T07:14:46;27.90;99.90
6518;DHT22;3292;48.944;9.240;2022-08-02T07:17:13;28.10;99.90
6518;DHT22;3292;48.944;9.240;2022-08-02T07:19:39;27.70;99.90
6518;DHT22;3292;48.944;9.240;2022-08-02T07:22:06;27.70;99.90
6518;DHT22;3292;48.944;9.240;2022-08-02T07:24:36;27.80;99.90
6518;DHT22;3292;48.944;9.240;2022-08-02T07:27:02;27.90;99.90
6518;DHT22;3292;48.944;9.240;2022-08-02T07:29:29;28.10;99.90
6518;DHT22;3292;48.944;9.240;2022-08-02T07:31:58;28.10;99.90
6518;DHT22;3292;48.944;9.240;2022-08-02T07:34:24;28.00;99.90
6518;DHT22;3292;48.944;9.240;2022-08-02T07:36:51;27.90;99.90
6518;DHT22;3292;48.944;9.240;2022-08-02T07:39:18;27.90;99.90
6518;DHT22;3292;48.944;9.240;2022-08-02T07:41:45;27.90;99.90
6518;DHT22;3292;48.944;9.240;2022-08-02T07:44:15;27.60;99.90
6518;DHT22;3292;48.944;9.240;2022-08-02T07:46:42;27.40;99.90
6518;DHT22;3292;48.944;9.240;2022-08-02T07:49:11;27.40;99.90
6518;DHT22;3292;48.944;9.240;2022-08-02T07:51:43;27.50;99.90
6518;DHT22;3292;48.944;9.240;2022-08-02T07:54:09;27.50;99.90
6518;DHT22;3292;48.944;9.240;2022-08-02T07:56:36;27.60;99.90
6518;DHT22;3292;48.944;9.240;2022-08-02T07:59:03;27.60;99.90
6518;DHT22;3292;48.944;9.240;2022-08-02T08:01:30;27.60;99.90
6518;DHT22;3292;48.944;9.240;2022-08-02T08:03:57;27.90;99.90
6518;DHT22;3292;48.944;9.240;2022-08-02T08:06:25;28.10;99.90
6518;DHT22;3292;48.944;9.240;2022-08-02T08:08:52;28.30;99.90
6518;DHT22;3292;48.944;9.240;2022-08-02T08:11:20;28.20;99.90
6518;DHT22;3292;48.944;9.240;2022-08-02T08:13:47;28.20;99.90
6518;DHT22;3292;48.944;9.240;2022-08-02T08:16:13;28.20;99.90
6518;DHT22;3292;48.944;9.240;2022-08-02T08:18:43;28.20;99.90
6518;DHT22;3292;48.944;9.240;2022-08-02T08:21:10;28.40;99.90
6518;DHT22;3292;48.944;9.240;2022-08-02T08:23:38;28.40;99.90
6518;DHT22;3292;48.944;9.240;2022-08-02T08:26:05;28.50;99.90
6518;DHT22;3292;48.944;9.240;2022-08-02T08:28:32;28.50;99.90
6518;DHT22;3292;48.944;9.240;2022-08-02T08:31:00;28.40;99.90
6518;DHT22;3292;48.944;9.240;2022-08-02T08:33:26;28.50;99.90
6518;DHT22;3292;48.944;9.240;2022-08-02T08:35:53;28.50;99.90
6518;DHT22;3292;48.944;9.240;2022-08-02T08:38:20;28.20;99.90
6518;DHT22;3292;48.944;9.240;2022-08-02T08:40:49;28.30;99.90
6518;DHT22;3292;48.944;9.240;2022-08-02T08:43:17;28.40;99.90
6518;DHT22;3292;48.944;9.240;2022-08-02T08:45:46;28.30;99.90
6518;DHT22;3292;48.944;9.240;2022-08-02T08:48:16;28.50;99.90
6518;DHT22;3292;48.944;9.240;2022-08-02T08:50:48;28.60;99.90
6518;DHT22;3292;48.944;9.240;2022-08-02T08:53:19;28.70;99.90
6518;DHT22;3292;48.944;9.240;2022-08-02T08:55:52;28.90;99.90
6518;DHT22;3292;48.944;9.240;2022-08-02T08:58:21;28.70;99.90
6518;DHT22;3292;48.944;9.240;2022-08-02T09:00:50;28.40;99.90
6518;DHT22;3292;48.944;9.240;2022-08-02T09:03:18;28.20;99.90
6518;DHT22;3292;48.944;9.240;2022-08-02T09:05:46;28.10;99.90
6518;DHT22;3292;48.944;9.240;2022-08-02T09:08:13;28.00;99.90
6518;DHT22;3292;48.944;9.240;2022-08-02T09:10:45;27.90;99.90
6518;DHT22;3292;48.944;9.240;2022-08-02T09:13:17;28.10;99.90
6518;DHT22;3292;48.944;9.240;2022-08-02T09:15:52;27.90;99.90
6518;DHT22;3292;48.944;9.240;2022-08-02T09:18:27;27.90;99.90
6518;DHT22;3292;48.944;9.240;2022-08-02T09:20:57;27.60;99.90
6518;DHT22;3292;48.944;9.240;2022-08-02T09:23:26;27.30;99.90
6518;DHT22;3292;48.944;9.240;2022-08-02T09:26:02;27.20;99.90
6518;DHT22;3292;48.944;9.240;2022-08-02T09:28:33;27.60;99.90
6518;DHT22;3292;48.944;9.240;2022-08-02T09:31:04;28.10;99.90
6518;DHT22;3292;48.944;9.240;2022-08-02T09:33:35;28.00;99.90
6518;DHT22;3292;48.944;9.240;2022-08-02T09:36:05;27.40;99.90
6518;DHT22;3292;48.944;9.240;2022-08-02T09:38:32;27.50;99.90
6518;DHT22;3292;48.944;9.240;2022-08-02T09:41:00;27.40;99.90
6518;DHT22;3292;48.944;9.240;2022-08-02T09:43:39;27.40;99.90
6518;DHT22;3292;48.944;9.240;2022-08-02T09:46:10;27.20;99.90
6518;DHT22;3292;48.944;9.240;2022-08-02T09:48:49;27.50;99.90
6518;DHT22;3292;48.944;9.240;2022-08-02T09:51:18;28.10;99.90
6518;DHT22;3292;48.944;9.240;2022-08-02T09:53:47;28.40;99.90
6518;DHT22;3292;48.944;9.240;2022-08-02T09:56:15;28.90;99.90
6518;DHT22;3292;48.944;9.240;2022-08-02T09:58:45;29.40;99.90
6518;DHT22;3292;48.944;9.240;2022-08-02T10:01:14;29.60;99.90
6518;DHT22;3292;48.944;9.240;2022-08-02T10:03:58;29.80;99.90
6518;DHT22;3292;48.944;9.240;2022-08-02T10:06:25;30.00;99.90
6518;DHT22;3292;48.944;9.240;2022-08-02T10:08:53;29.50;99.90
6518;DHT22;3292;48.944;9.240;2022-08-02T10:11:20;29.30;99.90
6518;DHT22;3292;48.944;9.240;2022-08-02T10:13:49;29.60;99.90
6518;DHT22;3292;48.944;9.240;2022-08-02T10:16:19;29.80;99.90
6518;DHT22;3292;48.944;9.240;2022-08-02T10:18:48;30.10;99.90
6518;DHT22;3292;48.944;9.240;2022-08-02T10:21:19;30.30;99.90
6518;DHT22;3292;48.944;9.240;2022-08-02T10:23:48;29.80;99.90
6518;DHT22;3292;48.944;9.240;2022-08-02T10:26:17;29.40;99.90
6518;DHT22;3292;48.944;9.240;2022-08-02T10:28:46;29.00;99.90
6518;DHT22;3292;48.944;9.240;2022-08-02T10:31:18;28.50;99.90
6518;DHT22;3292;48.944;9.240;2022-08-02T10:33:49;28.40;99.90
6518;DHT22;3292;48.944;9.240;2022-08-02T10:36:18;29.00;99.90
6518;DHT22;3292;48.944;9.240;2022-08-02T10:38:46;29.40;99.90
6518;DHT22;3292;48.944;9.240;2022-08-02T10:41:13;29.40;99.90
6518;DHT22;3292;48.944;9.240;2022-08-02T10:43:42;29.40;99.90
6518;DHT22;3292;48.944;9.240;2022-08-02T10:46:28;29.50;99.90
6518;DHT22;3292;48.944;9.240;2022-08-02T10:49:10;29.50;99.90
6518;DHT22;3292;48.944;9.240;2022-08-02T10:51:58;29.60;99.90
6518;DHT22;3292;48.944;9.240;2022-08-02T10:54:33;29.70;99.90
6518;DHT22;3292;48.944;9.240;2022-08-02T10:57:01;30.10;99.20
6518;DHT22;3292;48.944;9.240;2022-08-02T10:59:32;30.10;99.80
6518;DHT22;3292;48.944;9.240;2022-08-02T11:02:03;30.30;99.90
6518;DHT22;3292;48.944;9.240;2022-08-02T11:04:59;30.40;99.50
6518;DHT22;3292;48.944;9.240;2022-08-02T11:07:31;30.60;98.20
6518;DHT22;3292;48.944;9.240;2022-08-02T11:09:58;30.70;98.20
6518;DHT22;3292;48.944;9.240;2022-08-02T11:12:25;31.00;97.50
6518;DHT22;3292;48.944;9.240;2022-08-02T11:14:58;30.40;96.50
6518;DHT22;3292;48.944;9.240;2022-08-02T11:17:26;30.00;97.20
6518;DHT22;3292;48.944;9.240;2022-08-02T11:20:14;30.30;98.20
6518;DHT22;3292;48.944;9.240;2022-08-02T11:22:43;30.70;96.80
6518;DHT22;3292;48.944;9.240;2022-08-02T11:25:29;31.00;96.80
6518;DHT22;3292;48.944;9.240;2022-08-02T11:27:58;31.00;97.60
6518;DHT22;3292;48.944;9.240;2022-08-02T11:30:26;31.30;96.60
6518;DHT22;3292;48.944;9.240;2022-08-02T11:32:54;31.60;97.20
6518;DHT22;3292;48.944;9.240;2022-08-02T11:35:21;32.10;95.50
6518;DHT22;3292;48.944;9.240;2022-08-02T11:37:49;32.10;95.10
6518;DHT22;3292;48.944;9.240;2022-08-02T11:40:17;32.40;95.50
6518;DHT22;3292;48.944;9.240;2022-08-02T11:42:48;32.50;94.70
6518;DHT22;3292;48.944;9.240;2022-08-02T11:45:16;32.40;93.30
6518;DHT22;3292;48.944;9.240;2022-08-02T11:47:47;32.40;93.30
6518;DHT22;3292;48.944;9.240;2022-08-02T11:50:16;32.40;94.00
6518;DHT22;3292;48.944;9.240;2022-08-02T11:52:54;32.30;92.40
6518;DHT22;3292;48.944;9.240;2022-08-02T11:55:26;32.10;92.60
6518;DHT22;3292;48.944;9.240;2022-08-02T11:58:00;32.20;92.80
6518;DHT22;3292;48.944;9.240;2022-08-02T12:00:28;32.40;93.70
6518;DHT22;3292;48.944;9.240;2022-08-02T12:02:55;32.50;92.30
6518;DHT22;3292;48.944;9.240;2022-08-02T12:05:23;32.50;91.30
6518;DHT22;3292;48.944;9.240;2022-08-02T12:07:51;32.60;91.80
6518;DHT22;3292;48.944;9.240;2022-08-02T12:10:22;32.60;90.80
6518;DHT22;3292;48.944;9.240;2022-08-02T12:12:54;32.50;91.00
6518;DHT22;3292;48.944;9.240;2022-08-02T12:15:29;31.90;90.60
6518;DHT22;3292;48.944;9.240;2022-08-02T12:17:57;32.10;91.00
6518;DHT22;3292;48.944;9.240;2022-08-02T12:20:41;32.10;90.60
6518;DHT22;3292;48.944;9.240;2022-08-02T12:23:11;32.00;88.90
6518;DHT22;3292;48.944;9.240;2022-08-02T12:25:44;32.10;89.60
6518;DHT22;3292;48.944;9.240;2022-08-02T12:28:17;32.30;90.20
6518;DHT22;3292;48.944;9.240;2022-08-02T12:30:53;32.60;88.00
6518;DHT22;3292;48.944;9.240;2022-08-02T12:33:25;32.50;86.20
6518;DHT22;3292;48.944;9.240;2022-08-02T12:36:00;32.20;84.60
6518;DHT22;3292;48.944;9.240;2022-08-02T12:38:49;32.30;84.70
6518;DHT22;3292;48.944;9.240;2022-08-02T12:41:24;32.20;84.60
6518;DHT22;3292;48.944;9.240;2022-08-02T12:43:57;32.50;86.60
6518;DHT22;3292;48.944;9.240;2022-08-02T12:46:25;32.40;82.20
6518;DHT22;3292;48.944;9.240;2022-08-02T12:48:56;32.50;87.30
6518;DHT22;3292;48.944;9.240;2022-08-02T12:51:36;32.60;83.10
6518;DHT22;3292;48.944;9.240;2022-08-02T12:54:11;32.90;83.30
6518;DHT22;3292;48.944;9.240;2022-08-02T12:56:43;32.90;82.60
6518;DHT22;3292;48.944;9.240;2022-08-02T12:59:11;32.70;81.40
6518;DHT22;3292;48.944;9.240;2022-08-02T13:01:41;32.50;82.50
6518;DHT22;3292;48.944;9.240;2022-08-02T13:04:22;32.30;83.00
6518;DHT22;3292;48.944;9.240;2022-08-02T13:06:57;32.00;81.10
6518;DHT22;3292;48.944;9.240;2022-08-02T13:09:34;31.70;82.00
6518;DHT22;3292;48.944;9.240;2022-08-02T13:12:03;31.60;81.60
6518;DHT22;3292;48.944;9.240;2022-08-02T13:14:32;31.40;83.40
6518;DHT22;3292;48.944;9.240;2022-08-02T13:17:00;31.10;82.90
6518;DHT22;3292;48.944;9.240;2022-08-02T13:19:36;31.40;83.60
6518;DHT22;3292;48.944;9.240;2022-08-02T13:22:04;31.80;84.30
6518;DHT22;3292;48.944;9.240;2022-08-02T13:24:35;32.30;82.00
6518;DHT22;3292;48.944;9.240;2022-08-02T13:27:11;32.30;78.70
6518;DHT22;3292;48.944;9.240;2022-08-02T13:29:45;32.40;78.00
6518;DHT22;3292;48.944;9.240;2022-08-02T13:32:21;32.40;77.40
6518;DHT22;3292;48.944;9.240;2022-08-02T13:34:53;32.60;78.70
6518;DHT22;3292;48.944;9.240;2022-08-02T13:37:21;32.60;76.00
6518;DHT22;3292;48.944;9.240;2022-08-02T13:39:48;32.40;76.60
6518;DHT22;3292;48.944;9.240;2022-08-02T13:42:17;32.60;77.50
6518;DHT22;3292;48.944;9.240;2022-08-02T13:44:44;32.60;75.00
6518;DHT22;3292;48.944;9.240;2022-08-02T13:47:14;32.40;74.00
6518;DHT22;3292;48.944;9.240;2022-08-02T13:49:43;32.20;76.20
6518;DHT22;3292;48.944;9.240;2022-08-02T13:52:12;32.10;77.40
6518;DHT22;3292;48.944;9.240;2022-08-02T13:57:25;31.90;76.50
6518;DHT22;3292;48.944;9.240;2022-08-02T13:59:58;31.70;76.10
6518;DHT22;3292;48.944;9.240;2022-08-02T14:02:31;31.70;76.20
6518;DHT22;3292;48.944;9.240;2022-08-02T14:05:02;31.70;75.40
6518;DHT22;3292;48.944;9.240;2022-08-02T14:07:35;31.50;76.20
6518;DHT22;3292;48.944;9.240;2022-08-02T14:10:29;31.60;77.50
6518;DHT22;3292;48.944;9.240;2022-08-02T14:13:05;31.70;80.60
6518;DHT22;3292;48.944;9.240;2022-08-02T14:15:33;31.90;78.30
6518;DHT22;3292;48.944;9.240;2022-08-02T14:18:02;31.90;77.00
6518;DHT22;3292;48.944;9.240;2022-08-02T14:20:33;31.90;75.50
6518;DHT22;3292;48.944;9.240;2022-08-02T14:23:07;31.80;74.90
6518;DHT22;3292;48.944;9.240;2022-08-02T14:25:42;31.90;77.70
6518;DHT22;3292;48.944;9.240;2022-08-02T14:28:14;32.10;76.80
6518;DHT22;3292;48.944;9.240;2022-08-02T14:30:47;32.20;78.60
6518;DHT22;3292;48.944;9.240;2022-08-02T14:33:17;32.30;77.90
6518;DHT22;3292;48.944;9.240;2022-08-02T14:35:56;32.30;75.20
6518;DHT22;3292;48.944;9.240;2022-08-02T14:38:29;32.30;73.50
6518;DHT22;3292;48.944;9.240;2022-08-02T14:40:57;32.00;77.10
6518;DHT22;3292;48.944;9.240;2022-08-02T14:43:25;32.10;75.00
6518;DHT22;3292;48.944;9.240;2022-08-02T14:46:10;32.00;75.80
6518;DHT22;3292;48.944;9.240;2022-08-02T14:48:36;31.70;75.90
6518;DHT22;3292;48.944;9.240;2022-08-02T14:51:03;31.70;74.40
6518;DHT22;3292;48.944;9.240;2022-08-02T14:53:30;31.70;73.50
6518;DHT22;3292;48.944;9.240;2022-08-02T14:55:57;31.70;73.80
6518;DHT22;3292;48.944;9.240;2022-08-02T14:58:25;31.70;74.10
6518;DHT22;3292;48.944;9.240;2022-08-02T15:00:52;31.60;73.20
6518;DHT22;3292;48.944;9.240;2022-08-02T15:03:19;31.60;73.40
6518;DHT22;3292;48.944;9.240;2022-08-02T15:05:46;31.50;74.40
6518;DHT22;3292;48.944;9.240;2022-08-02T15:08:13;31.50;75.50
6518;DHT22;3292;48.944;9.240;2022-08-02T15:10:39;31.50;74.10
6518;DHT22;3292;48.944;9.240;2022-08-02T15:13:06;31.60;74.60
6518;DHT22;3292;48.944;9.240;2022-08-02T15:15:35;31.50;75.30
6518;DHT22;3292;48.944;9.240;2022-08-02T15:18:02;31.60;74.80
6518;DHT22;3292;48.944;9.240;2022-08-02T15:20:29;31.60;75.50
6518;DHT22;3292;48.944;9.240;2022-08-02T15:22:56;31.70;75.40
6518;DHT22;3292;48.944;9.240;2022-08-02T15:25:23;31.70;72.60
6518;DHT22;3292;48.944;9.240;2022-08-02T15:27:49;31.70;73.40
6518;DHT22;3292;48.944;9.240;2022-08-02T15:30:16;31.70;74.70
6518;DHT22;3292;48.944;9.240;2022-08-02T15:32:45;31.50;74.40
6518;DHT22;3292;48.944;9.240;2022-08-02T15:35:13;31.50;75.40
6518;DHT22;3292;48.944;9.240;2022-08-02T15:37:40;31.50;74.20
6518;DHT22;3292;48.944;9.240;2022-08-02T15:40:08;31.60;75.10
6518;DHT22;3292;48.944;9.240;2022-08-02T15:42:35;31.60;74.10
6518;DHT22;3292;48.944;9.240;2022-08-02T15:45:02;31.70;73.60
6518;DHT22;3292;48.944;9.240;2022-08-02T15:47:29;31.70;74.30
6518;DHT22;3292;48.944;9.240;2022-08-02T15:49:57;31.70;74.40
6518;DHT22;3292;48.944;9.240;2022-08-02T15:52:24;31.70;73.10
6518;DHT22;3292;48.944;9.240;2022-08-02T15:54:51;31.70;72.80
6518;DHT22;3292;48.944;9.240;2022-08-02T15:57:18;31.60;72.90
6518;DHT22;3292;48.944;9.240;2022-08-02T15:59:45;31.60;73.00
6518;DHT22;3292;48.944;9.240;2022-08-02T16:02:11;31.30;73.20
6518;DHT22;3292;48.944;9.240;2022-08-02T16:04:40;31.40;75.00
6518;DHT22;3292;48.944;9.240;2022-08-02T16:07:08;31.40;74.50
6518;DHT22;3292;48.944;9.240;2022-08-02T16:09:35;31.40;75.20
6518;DHT22;3292;48.944;9.240;2022-08-02T16:12:02;31.30;72.60
6518;DHT22;3292;48.944;9.240;2022-08-02T16:14:31;31.10;72.30
6518;DHT22;3292;48.944;9.240;2022-08-02T16:16:58;31.10;75.10
6518;DHT22;3292;48.944;9.240;2022-08-02T16:19:25;30.90;72.00
6518;DHT22;3292;48.944;9.240;2022-08-02T16:21:52;30.90;74.40